createdAt,value
2016-05-27T00:00:01.528Z,15.1
2016-05-27T00:00:04.465Z,15.1
2016-05-27T00:00:07.262Z,15.2
2016-05-27T00:00:10.200Z,15.2
2016-05-27T00:00:14.106Z,15.1
2016-05-27T00:00:17.059Z,15.1
2016-05-27T00:00:19.996Z,15.2
2016-05-27T00:00:22.950Z,15.1
2016-05-27T00:00:26.871Z,15.2
2016-05-27T00:00:29.825Z,15
2016-05-27T00:00:32.621Z,15.1
2016-05-27T00:00:35.559Z,15.2
2016-05-27T00:00:39.168Z,15.1
2016-05-27T00:00:42.121Z,15.1
2016-05-27T00:00:44.903Z,15.1
2016-05-27T00:00:47.684Z,15.1
2016-05-27T00:00:51.465Z,15.2
2016-05-27T00:00:54.262Z,15.2
2016-05-27T00:00:57.217Z,15.2
2016-05-27T00:01:00.155Z,15.3
2016-05-27T00:01:04.077Z,15.3
2016-05-27T00:01:06.873Z,15.2
2016-05-27T00:01:09.811Z,15.3
2016-05-27T00:01:12.608Z,15.3
2016-05-27T00:01:16.389Z,15.4
2016-05-27T00:01:19.342Z,15.5
2016-05-27T00:01:22.139Z,15.4
2016-05-27T00:01:25.077Z,15.4
2016-05-27T00:01:28.858Z,15.2
2016-05-27T00:01:31.639Z,15.2
2016-05-27T00:01:34.577Z,15.2
2016-05-27T00:01:37.217Z,15.3
2016-05-27T00:01:41.139Z,15.4
2016-05-27T00:01:44.092Z,15.4
2016-05-27T00:01:46.873Z,15.4
2016-05-27T00:01:49.670Z,15.4
2016-05-27T00:01:53.436Z,15.4
2016-05-27T00:01:56.373Z,15.4
2016-05-27T00:01:59.330Z,15.4
2016-05-27T00:02:02.267Z,15.4
2016-05-27T00:02:06.189Z,15.4
2016-05-27T00:02:09.142Z,15.5
2016-05-27T00:02:12.080Z,15.5
2016-05-27T00:02:15.017Z,15.5
2016-05-27T00:02:18.783Z,15.4
2016-05-27T00:02:21.408Z,15.4
2016-05-27T00:02:24.361Z,15.4
2016-05-27T00:02:27.298Z,15.4
2016-05-27T00:02:31.064Z,15.4
2016-05-27T00:02:33.705Z,15.3
2016-05-27T00:02:36.501Z,15.4
2016-05-27T00:02:39.298Z,15.4
2016-05-27T00:02:42.908Z,15.3
2016-05-27T00:02:45.861Z,15.4
2016-05-27T00:02:48.955Z,15.4
2016-05-27T00:02:53.095Z,15.4
2016-05-27T00:02:56.111Z,15.4
2016-05-27T00:02:59.098Z,15.3
2016-05-27T00:03:03.020Z,15.3
2016-05-27T00:03:05.817Z,15.3
2016-05-27T00:03:08.598Z,15.3
2016-05-27T00:03:11.536Z,15.3
2016-05-27T00:03:15.458Z,15.2
2016-05-27T00:03:18.411Z,15.2
2016-05-27T00:03:21.208Z,15.2
2016-05-27T00:03:24.161Z,15.2
2016-05-27T00:03:28.161Z,15.2
2016-05-27T00:03:31.723Z,15.3
2016-05-27T00:03:34.645Z,15.3
2016-05-27T00:03:37.317Z,15.2
2016-05-27T00:03:41.583Z,15.2
2016-05-27T00:03:45.161Z,15.2
2016-05-27T00:03:48.583Z,15.2
2016-05-27T00:03:52.379Z,15.3
2016-05-27T00:03:55.161Z,15.3
2016-05-27T00:03:57.976Z,15.2
2016-05-27T00:04:01.367Z,15.2
2016-05-27T00:04:05.304Z,15.3
2016-05-27T00:04:08.257Z,15.3
2016-05-27T00:04:11.070Z,15.2
2016-05-27T00:04:14.007Z,15.2
2016-05-27T00:04:18.164Z,15.2
2016-05-27T00:04:21.117Z,15.2
2016-05-27T00:04:23.867Z,15.2
2016-05-27T00:04:27.054Z,15.2
2016-05-27T00:04:30.711Z,15.2
2016-05-27T00:04:33.492Z,15.2
2016-05-27T00:04:36.289Z,15.3
2016-05-27T00:04:39.242Z,15.3
2016-05-27T00:04:42.851Z,15.3
2016-05-27T00:04:45.789Z,15.2
2016-05-27T00:04:48.445Z,15.2
2016-05-27T00:04:51.382Z,15.3
2016-05-27T00:04:55.148Z,15.2
2016-05-27T00:04:58.103Z,15.2
2016-05-27T00:05:00.900Z,15.2
2016-05-27T00:05:03.838Z,15.2
2016-05-27T00:05:07.603Z,15.2
2016-05-27T00:05:10.541Z,15.3
2016-05-27T00:05:13.478Z,15.2
2016-05-27T00:05:16.416Z,15.2
2016-05-27T00:05:20.197Z,15.2
2016-05-27T00:05:22.994Z,15.2
2016-05-27T00:05:25.947Z,15.2
2016-05-27T00:05:28.884Z,15.2
2016-05-27T00:05:32.806Z,15.1
2016-05-27T00:05:35.744Z,15.2
2016-05-27T00:05:38.681Z,15.2
2016-05-27T00:05:41.619Z,15.2
2016-05-27T00:05:45.541Z,15.2
2016-05-27T00:05:48.322Z,15.2
2016-05-27T00:05:51.119Z,15.3
2016-05-27T00:05:54.072Z,15.3
2016-05-27T00:05:57.841Z,15.2
2016-05-27T00:06:00.637Z,15.3
2016-05-27T00:06:03.575Z,15.2
2016-05-27T00:06:06.356Z,15.3
2016-05-27T00:06:10.278Z,15.2
2016-05-27T00:06:12.903Z,15.3
2016-05-27T00:06:16.122Z,15.2
2016-05-27T00:06:19.262Z,15.3
2016-05-27T00:06:23.262Z,15.3
2016-05-27T00:06:26.169Z,15.3
2016-05-27T00:06:29.372Z,15.3
2016-05-27T00:06:33.356Z,15.2
2016-05-27T00:06:36.341Z,15.3
2016-05-27T00:06:39.341Z,15.4
2016-05-27T00:06:42.309Z,15.3
2016-05-27T00:06:46.231Z,15.3
2016-05-27T00:06:49.028Z,15.4
2016-05-27T00:06:51.966Z,15.4
2016-05-27T00:06:54.762Z,15.4
2016-05-27T00:06:58.531Z,15.4
2016-05-27T00:07:01.469Z,15.4
2016-05-27T00:07:04.109Z,15.4
2016-05-27T00:07:06.906Z,15.4
2016-05-27T00:07:10.672Z,15.4
2016-05-27T00:07:13.609Z,15.4
2016-05-27T00:07:16.406Z,15.5
2016-05-27T00:07:19.187Z,15.4
2016-05-27T00:07:23.125Z,15.5
2016-05-27T00:07:26.140Z,15.5
2016-05-27T00:07:29.078Z,15.6
2016-05-27T00:07:32.031Z,15.5
2016-05-27T00:07:35.984Z,15.6
2016-05-27T00:07:38.922Z,15.5
2016-05-27T00:07:41.859Z,15.5
2016-05-27T00:07:44.797Z,15.6
2016-05-27T00:07:48.703Z,15.5
2016-05-27T00:07:51.640Z,15.5
2016-05-27T00:07:54.594Z,15.5
2016-05-27T00:07:57.564Z,15.6
2016-05-27T00:08:01.346Z,15.6
2016-05-27T00:08:04.127Z,15.6
2016-05-27T00:08:07.064Z,15.6
2016-05-27T00:08:10.017Z,15.6
2016-05-27T00:08:13.939Z,15.6
2016-05-27T00:08:16.877Z,15.6
2016-05-27T00:08:19.658Z,15.6
2016-05-27T00:08:22.611Z,15.6
2016-05-27T00:08:26.533Z,15.6
2016-05-27T00:08:29.486Z,15.6
2016-05-27T00:08:32.283Z,15.5
2016-05-27T00:08:34.924Z,15.6
2016-05-27T00:08:38.674Z,15.6
2016-05-27T00:08:41.455Z,15.5
2016-05-27T00:08:44.408Z,15.4
2016-05-27T00:08:47.346Z,15.4
2016-05-27T00:08:51.283Z,15.3
2016-05-27T00:08:54.064Z,15.4
2016-05-27T00:08:57.005Z,15.3
2016-05-27T00:08:59.645Z,15.3
2016-05-27T00:09:03.411Z,15.3
2016-05-27T00:09:06.349Z,15.2
2016-05-27T00:09:09.145Z,15.3
2016-05-27T00:09:12.083Z,15.2
2016-05-27T00:09:16.020Z,15.2
2016-05-27T00:09:18.958Z,15.2
2016-05-27T00:09:21.755Z,15.2
2016-05-27T00:09:24.692Z,15.2
2016-05-27T00:09:28.458Z,15.3
2016-05-27T00:09:31.114Z,15.3
2016-05-27T00:09:34.052Z,15.2
2016-05-27T00:09:36.989Z,15.2
2016-05-27T00:09:40.911Z,15.2
2016-05-27T00:09:43.849Z,15.2
2016-05-27T00:09:46.489Z,15.2
2016-05-27T00:09:49.427Z,15.2
2016-05-27T00:09:53.349Z,15.1
2016-05-27T00:09:56.145Z,15
2016-05-27T00:09:58.930Z,15.1
2016-05-27T00:10:01.867Z,15.2
2016-05-27T00:10:05.789Z,15
2016-05-27T00:10:08.758Z,15.1
2016-05-27T00:10:11.398Z,15.2
2016-05-27T00:10:14.336Z,15.2
2016-05-27T00:10:17.945Z,15.2
2016-05-27T00:10:20.883Z,15.2
2016-05-27T00:10:23.820Z,15.2
2016-05-27T00:10:26.789Z,15.1
2016-05-27T00:10:30.586Z,15.2
2016-05-27T00:10:33.383Z,15.2
2016-05-27T00:10:36.320Z,15.2
2016-05-27T00:10:39.117Z,15.1
2016-05-27T00:10:43.039Z,15.1
2016-05-27T00:10:45.977Z,15.1
2016-05-27T00:10:48.914Z,15.2
2016-05-27T00:10:51.867Z,15.2
2016-05-27T00:10:55.633Z,15.1
2016-05-27T00:10:58.416Z,15.1
2016-05-27T00:11:01.369Z,15.1
2016-05-27T00:11:04.307Z,15
2016-05-27T00:11:08.229Z,15.1
2016-05-27T00:11:11.166Z,15
2016-05-27T00:11:13.947Z,15.1
2016-05-27T00:11:16.900Z,15
2016-05-27T00:11:20.822Z,15
2016-05-27T00:11:23.760Z,14.9
2016-05-27T00:11:26.541Z,15
2016-05-27T00:11:29.494Z,15.1
2016-05-27T00:11:33.260Z,15.1
2016-05-27T00:11:36.197Z,15
2016-05-27T00:11:39.135Z,14.9
2016-05-27T00:11:41.947Z,15
2016-05-27T00:11:45.869Z,15.1
2016-05-27T00:11:48.697Z,15.1
2016-05-27T00:11:51.479Z,15.1
2016-05-27T00:11:54.432Z,15.2
2016-05-27T00:11:58.200Z,15.1
2016-05-27T00:12:01.138Z,15.1
2016-05-27T00:12:04.075Z,15.1
2016-05-27T00:12:06.888Z,15.2
2016-05-27T00:12:10.810Z,15.2
2016-05-27T00:12:13.763Z,15.2
2016-05-27T00:12:16.716Z,15.2
2016-05-27T00:12:19.357Z,15.2
2016-05-27T00:12:23.122Z,15.2
2016-05-27T00:12:25.903Z,15.2
2016-05-27T00:12:28.841Z,15.2
2016-05-27T00:12:31.794Z,15.2
2016-05-27T00:12:35.716Z,15.2
2016-05-27T00:12:38.513Z,15.3
2016-05-27T00:12:41.450Z,15.2
2016-05-27T00:12:44.403Z,15.2
2016-05-27T00:12:48.325Z,15.2
2016-05-27T00:12:51.122Z,15.2
2016-05-27T00:12:54.060Z,15.3
2016-05-27T00:12:57.015Z,15.2
2016-05-27T00:13:00.624Z,15.3
2016-05-27T00:13:03.577Z,15.2
2016-05-27T00:13:06.515Z,15.2
2016-05-27T00:13:09.155Z,15.3
2016-05-27T00:13:13.077Z,15.4
2016-05-27T00:13:16.015Z,15.3
2016-05-27T00:13:18.952Z,15.3
2016-05-27T00:13:21.905Z,15.3
2016-05-27T00:13:25.671Z,15.3
2016-05-27T00:13:28.468Z,15.3
2016-05-27T00:13:31.405Z,15.3
2016-05-27T00:13:34.202Z,15.3
2016-05-27T00:13:37.812Z,15.3
2016-05-27T00:13:40.749Z,15.2
2016-05-27T00:13:43.702Z,15.2
2016-05-27T00:13:46.499Z,15.3
2016-05-27T00:13:50.280Z,15.3
2016-05-27T00:13:53.218Z,15.2
2016-05-27T00:13:55.859Z,15.3
2016-05-27T00:13:58.644Z,15.2
2016-05-27T00:14:02.409Z,15.3
2016-05-27T00:14:05.206Z,15.2
2016-05-27T00:14:08.144Z,15.1
2016-05-27T00:14:11.081Z,15.2
2016-05-27T00:14:15.019Z,15.2
2016-05-27T00:14:17.956Z,15.2
2016-05-27T00:14:20.909Z,15.2
2016-05-27T00:14:23.691Z,15.2
2016-05-27T00:14:27.613Z,15.2
2016-05-27T00:14:30.566Z,15.2
2016-05-27T00:14:33.503Z,15.2
2016-05-27T00:14:36.441Z,15.1
2016-05-27T00:14:40.206Z,15.2
2016-05-27T00:14:43.159Z,15.2
2016-05-27T00:14:46.113Z,15.2
2016-05-27T00:14:49.050Z,15.2
2016-05-27T00:14:52.816Z,15.2
2016-05-27T00:14:55.613Z,15.3
2016-05-27T00:14:58.552Z,15.2
2016-05-27T00:15:01.505Z,15.3
2016-05-27T00:15:05.443Z,15.2
2016-05-27T00:15:08.240Z,15.2
2016-05-27T00:15:11.036Z,15.3
2016-05-27T00:15:13.661Z,15.4
2016-05-27T00:15:17.427Z,15.4
2016-05-27T00:15:20.380Z,15.3
2016-05-27T00:15:23.161Z,15.2
2016-05-27T00:15:25.958Z,15.3
2016-05-27T00:15:29.865Z,15.2
2016-05-27T00:15:32.818Z,15.2
2016-05-27T00:15:35.615Z,15.2
2016-05-27T00:15:38.583Z,15.3
2016-05-27T00:15:42.349Z,15.2
2016-05-27T00:15:45.286Z,15.2
2016-05-27T00:15:48.224Z,15.3
2016-05-27T00:15:51.177Z,15.3
2016-05-27T00:15:54.943Z,15.3
2016-05-27T00:15:57.898Z,15.2
2016-05-27T00:16:00.835Z,15.2
2016-05-27T00:16:03.788Z,15.2
2016-05-27T00:16:07.554Z,15.2
2016-05-27T00:16:10.335Z,15.2
2016-05-27T00:16:13.273Z,15.2
2016-05-27T00:16:16.210Z,15.2
2016-05-27T00:16:20.132Z,15.2
2016-05-27T00:16:23.070Z,15.2
2016-05-27T00:16:26.023Z,15.2
2016-05-27T00:16:28.976Z,15.1
2016-05-27T00:16:32.742Z,15.1
2016-05-27T00:16:35.382Z,15.1
2016-05-27T00:16:38.320Z,15.2
2016-05-27T00:16:41.257Z,15.3
2016-05-27T00:16:44.867Z,15.1
2016-05-27T00:16:47.820Z,15.3
2016-05-27T00:16:50.757Z,15.2
2016-05-27T00:16:53.726Z,15.2
2016-05-27T00:16:57.495Z,15.2
2016-05-27T00:17:00.291Z,15.2
2016-05-27T00:17:03.088Z,15.2
2016-05-27T00:17:06.026Z,15.2
2016-05-27T00:17:09.948Z,15.2
2016-05-27T00:17:12.901Z,15.1
2016-05-27T00:17:15.838Z,15.1
2016-05-27T00:17:18.791Z,15.1
2016-05-27T00:17:22.698Z,15
2016-05-27T00:17:25.651Z,15.1
2016-05-27T00:17:28.588Z,15.2
2016-05-27T00:17:31.526Z,15.1
2016-05-27T00:17:35.291Z,15.1
2016-05-27T00:17:38.088Z,15.1
2016-05-27T00:17:40.729Z,15
2016-05-27T00:17:43.698Z,15.1
2016-05-27T00:17:47.620Z,15
2016-05-27T00:17:50.557Z,15
2016-05-27T00:17:53.495Z,15
2016-05-27T00:17:56.276Z,15
2016-05-27T00:18:00.060Z,15
2016-05-27T00:18:02.998Z,15.1
2016-05-27T00:18:05.935Z,15
2016-05-27T00:18:08.888Z,15
2016-05-27T00:18:12.810Z,15
2016-05-27T00:18:15.748Z,15
2016-05-27T00:18:18.544Z,15
2016-05-27T00:18:21.654Z,15
2016-05-27T00:18:25.529Z,15.1
2016-05-27T00:18:28.326Z,15.1
2016-05-27T00:18:31.701Z,15.2
2016-05-27T00:18:35.904Z,15.1
2016-05-27T00:18:38.560Z,15.2
2016-05-27T00:18:41.685Z,15.1
2016-05-27T00:18:44.482Z,15.1
2016-05-27T00:18:48.279Z,15.1
2016-05-27T00:18:51.232Z,15
2016-05-27T00:18:54.498Z,15
2016-05-27T00:18:58.626Z,15.1
2016-05-27T00:19:01.422Z,15
2016-05-27T00:19:04.376Z,15.1
2016-05-27T00:19:07.016Z,15.1
2016-05-27T00:19:10.813Z,15.1
2016-05-27T00:19:14.766Z,15.1
2016-05-27T00:19:17.891Z,15.1
2016-05-27T00:19:21.704Z,15.1
2016-05-27T00:19:24.876Z,15.1
2016-05-27T00:19:28.579Z,15
2016-05-27T00:19:32.501Z,15.1
2016-05-27T00:19:35.454Z,15
2016-05-27T00:19:38.391Z,15
2016-05-27T00:19:41.344Z,15.1
2016-05-27T00:19:45.126Z,15.1
2016-05-27T00:19:47.922Z,15.1
2016-05-27T00:19:50.876Z,15.1
2016-05-27T00:19:53.657Z,15.1
2016-05-27T00:19:57.582Z,15.1
2016-05-27T00:20:00.363Z,15.1
2016-05-27T00:20:03.316Z,15.1
2016-05-27T00:20:06.254Z,15.1
2016-05-27T00:20:10.019Z,15.1
2016-05-27T00:20:12.972Z,15
2016-05-27T00:20:15.910Z,15
2016-05-27T00:20:18.847Z,15
2016-05-27T00:20:22.597Z,14.9
2016-05-27T00:20:25.550Z,14.9
2016-05-27T00:20:28.332Z,14.8
2016-05-27T00:20:31.113Z,14.9
2016-05-27T00:20:34.894Z,14.8
2016-05-27T00:20:37.847Z,14.8
2016-05-27T00:20:40.785Z,14.9
2016-05-27T00:20:43.566Z,14.9
2016-05-27T00:20:47.488Z,14.9
2016-05-27T00:20:50.129Z,14.8
2016-05-27T00:20:52.925Z,14.9
2016-05-27T00:20:55.863Z,14.9
2016-05-27T00:20:59.631Z,14.9
2016-05-27T00:21:02.584Z,14.9
2016-05-27T00:21:05.521Z,14.9
2016-05-27T00:21:08.318Z,14.9
2016-05-27T00:21:12.084Z,14.9
2016-05-27T00:21:14.881Z,15
2016-05-27T00:21:17.834Z,14.9
2016-05-27T00:21:20.631Z,14.9
2016-05-27T00:21:24.537Z,15
2016-05-27T00:21:27.334Z,14.9
2016-05-27T00:21:30.115Z,14.9
2016-05-27T00:21:32.912Z,15
2016-05-27T00:21:36.818Z,15
2016-05-27T00:21:39.771Z,15.1
2016-05-27T00:21:42.724Z,15.1
2016-05-27T00:21:45.521Z,15
2016-05-27T00:21:49.443Z,15.1
2016-05-27T00:21:52.381Z,15.1
2016-05-27T00:21:55.334Z,15.1
2016-05-27T00:21:58.133Z,15.1
2016-05-27T00:22:02.054Z,15.1
2016-05-27T00:22:04.992Z,15.1
2016-05-27T00:22:07.929Z,15.1
2016-05-27T00:22:10.867Z,15.1
2016-05-27T00:22:14.789Z,15.1
2016-05-27T00:22:17.758Z,15.1
2016-05-27T00:22:20.695Z,15
2016-05-27T00:22:23.476Z,14.9
2016-05-27T00:22:27.242Z,14.9
2016-05-27T00:22:30.039Z,14.9
2016-05-27T00:22:32.820Z,14.9
2016-05-27T00:22:35.758Z,14.8
2016-05-27T00:22:39.523Z,14.8
2016-05-27T00:22:42.476Z,14.9
2016-05-27T00:22:45.289Z,14.9
2016-05-27T00:22:48.070Z,14.9
2016-05-27T00:22:51.992Z,14.9
2016-05-27T00:22:54.789Z,14.9
2016-05-27T00:22:57.573Z,14.9
2016-05-27T00:23:00.386Z,14.9
2016-05-27T00:23:04.151Z,15
2016-05-27T00:23:06.948Z,14.9
2016-05-27T00:23:09.886Z,14.9
2016-05-27T00:23:12.682Z,15
2016-05-27T00:23:16.589Z,15
2016-05-27T00:23:19.526Z,15
2016-05-27T00:23:22.464Z,15
2016-05-27T00:23:25.401Z,15
2016-05-27T00:23:29.167Z,15
2016-05-27T00:23:32.120Z,15
2016-05-27T00:23:35.057Z,15.1
2016-05-27T00:23:38.011Z,15.1
2016-05-27T00:23:41.932Z,15.1
2016-05-27T00:23:44.870Z,15.1
2016-05-27T00:23:47.651Z,15.1
2016-05-27T00:23:50.448Z,15
2016-05-27T00:23:54.386Z,15
2016-05-27T00:23:57.186Z,14.9
2016-05-27T00:24:00.124Z,14.9
2016-05-27T00:24:03.077Z,15.1
2016-05-27T00:24:06.827Z,15
2016-05-27T00:24:09.483Z,14.9
2016-05-27T00:24:12.265Z,14.9
2016-05-27T00:24:14.890Z,14.8
2016-05-27T00:24:18.827Z,14.9
2016-05-27T00:24:21.780Z,14.9
2016-05-27T00:24:24.718Z,15
2016-05-27T00:24:27.530Z,15
2016-05-27T00:24:31.515Z,14.9
2016-05-27T00:24:34.483Z,14.9
2016-05-27T00:24:37.311Z,15
2016-05-27T00:24:40.265Z,14.9
2016-05-27T00:24:44.186Z,14.9
2016-05-27T00:24:47.140Z,15
2016-05-27T00:24:50.265Z,14.9
2016-05-27T00:24:54.186Z,14.9
2016-05-27T00:24:57.140Z,15
2016-05-27T00:25:00.095Z,14.9
2016-05-27T00:25:03.048Z,14.9
2016-05-27T00:25:06.970Z,14.8
2016-05-27T00:25:09.923Z,14.9
2016-05-27T00:25:12.907Z,14.8
2016-05-27T00:25:15.845Z,14.9
2016-05-27T00:25:19.767Z,14.9
2016-05-27T00:25:22.704Z,14.9
2016-05-27T00:25:25.485Z,15
2016-05-27T00:25:28.438Z,14.9
2016-05-27T00:25:32.204Z,14.9
2016-05-27T00:25:35.001Z,14.9
2016-05-27T00:25:37.798Z,14.9
2016-05-27T00:25:40.595Z,14.9
2016-05-27T00:25:44.360Z,14.9
2016-05-27T00:25:47.298Z,14.8
2016-05-27T00:25:49.938Z,14.9
2016-05-27T00:25:52.735Z,14.9
2016-05-27T00:25:56.657Z,14.9
2016-05-27T00:25:59.613Z,14.9
2016-05-27T00:26:02.551Z,14.9
2016-05-27T00:26:05.191Z,14.9
2016-05-27T00:26:09.113Z,14.9
2016-05-27T00:26:11.895Z,15
2016-05-27T00:26:14.832Z,14.9
2016-05-27T00:26:17.629Z,15
2016-05-27T00:26:21.395Z,15
2016-05-27T00:26:24.176Z,15.1
2016-05-27T00:26:26.957Z,15
2016-05-27T00:26:29.910Z,15.1
2016-05-27T00:26:33.832Z,14.9
2016-05-27T00:26:36.770Z,14.9
2016-05-27T00:26:39.566Z,14.9
2016-05-27T00:26:42.348Z,15
2016-05-27T00:26:46.270Z,15
2016-05-27T00:26:49.051Z,14.9
2016-05-27T00:26:51.848Z,15
2016-05-27T00:26:54.785Z,14.9
2016-05-27T00:26:58.568Z,14.9
2016-05-27T00:27:01.506Z,15
2016-05-27T00:27:04.459Z,15
2016-05-27T00:27:07.240Z,15
2016-05-27T00:27:10.865Z,15
2016-05-27T00:27:13.803Z,15.1
2016-05-27T00:27:16.756Z,15
2016-05-27T00:27:19.709Z,14.9
2016-05-27T00:27:23.631Z,14.9
2016-05-27T00:27:26.568Z,14.9
2016-05-27T00:27:29.506Z,14.9
2016-05-27T00:27:32.287Z,15
2016-05-27T00:27:36.068Z,15
2016-05-27T00:27:39.006Z,14.9
2016-05-27T00:27:41.787Z,14.9
2016-05-27T00:27:44.584Z,15
2016-05-27T00:27:48.522Z,15
2016-05-27T00:27:51.303Z,14.9
2016-05-27T00:27:54.100Z,15
2016-05-27T00:27:57.053Z,15
2016-05-27T00:28:00.978Z,15
2016-05-27T00:28:03.915Z,15
2016-05-27T00:28:06.853Z,15.1
2016-05-27T00:28:09.806Z,15.1
2016-05-27T00:28:13.587Z,15.2
2016-05-27T00:28:16.525Z,15.1
2016-05-27T00:28:19.321Z,15.2
2016-05-27T00:28:22.259Z,15.1
2016-05-27T00:28:26.181Z,15.1
2016-05-27T00:28:29.118Z,15.1
2016-05-27T00:28:31.931Z,15.1
2016-05-27T00:28:34.900Z,15.1
2016-05-27T00:28:38.665Z,15.1
2016-05-27T00:28:41.618Z,15.2
2016-05-27T00:28:44.556Z,15.2
2016-05-27T00:28:47.509Z,15.2
2016-05-27T00:28:51.275Z,15
2016-05-27T00:28:54.212Z,15.1
2016-05-27T00:28:57.165Z,15.1
2016-05-27T00:28:59.964Z,15.1
2016-05-27T00:29:03.886Z,15.1
2016-05-27T00:29:06.683Z,15.1
2016-05-27T00:29:09.636Z,15.1
2016-05-27T00:29:12.433Z,14.9
2016-05-27T00:29:16.339Z,15
2016-05-27T00:29:19.277Z,14.9
2016-05-27T00:29:22.089Z,14.9
2016-05-27T00:29:25.042Z,14.9
2016-05-27T00:29:28.964Z,14.9
2016-05-27T00:29:31.902Z,14.8
2016-05-27T00:29:34.855Z,14.9
2016-05-27T00:29:37.792Z,14.8
2016-05-27T00:29:41.558Z,14.8
2016-05-27T00:29:44.495Z,14.8
2016-05-27T00:29:47.292Z,14.8
2016-05-27T00:29:50.089Z,14.8
2016-05-27T00:29:54.011Z,14.9
2016-05-27T00:29:56.948Z,14.9
2016-05-27T00:29:59.748Z,14.9
2016-05-27T00:30:02.717Z,14.9
2016-05-27T00:30:06.342Z,14.9
2016-05-27T00:30:09.280Z,14.8
2016-05-27T00:30:12.076Z,14.9
2016-05-27T00:30:14.873Z,14.8
2016-05-27T00:30:18.795Z,14.8
2016-05-27T00:30:21.592Z,14.8
2016-05-27T00:30:24.373Z,14.9
2016-05-27T00:30:27.155Z,14.8
2016-05-27T00:30:30.920Z,14.8
2016-05-27T00:30:33.858Z,14.8
2016-05-27T00:30:36.655Z,14.9
2016-05-27T00:30:39.592Z,14.9
2016-05-27T00:30:43.530Z,14.8
2016-05-27T00:30:46.467Z,14.9
2016-05-27T00:30:49.420Z,14.9
2016-05-27T00:30:52.201Z,14.9
2016-05-27T00:30:55.967Z,14.9
2016-05-27T00:30:58.923Z,14.9
2016-05-27T00:31:01.876Z,14.9
2016-05-27T00:31:04.814Z,14.9
2016-05-27T00:31:08.736Z,14.9
2016-05-27T00:31:11.533Z,15
2016-05-27T00:31:14.314Z,15
2016-05-27T00:31:17.095Z,15
2016-05-27T00:31:20.876Z,15
2016-05-27T00:31:23.673Z,15
2016-05-27T00:31:26.454Z,15.1
2016-05-27T00:31:29.251Z,15.1
2016-05-27T00:31:33.173Z,15.1
2016-05-27T00:31:36.126Z,15.1
2016-05-27T00:31:39.064Z,15.1
2016-05-27T00:31:41.861Z,15.1
2016-05-27T00:31:45.642Z,15.1
2016-05-27T00:31:48.579Z,15.1
2016-05-27T00:31:51.220Z,15.1
2016-05-27T00:31:54.001Z,15.1
2016-05-27T00:31:57.942Z,15.1
2016-05-27T00:32:00.739Z,15.1
2016-05-27T00:32:03.536Z,15.1
2016-05-27T00:32:06.317Z,15
2016-05-27T00:32:10.239Z,15.1
2016-05-27T00:32:13.176Z,15.2
2016-05-27T00:32:15.817Z,15.2
2016-05-27T00:32:18.598Z,15.1
2016-05-27T00:32:22.520Z,15.1
2016-05-27T00:32:25.457Z,15.2
2016-05-27T00:32:28.254Z,15.1
2016-05-27T00:32:31.192Z,15.2
2016-05-27T00:32:35.129Z,15.1
2016-05-27T00:32:38.067Z,15.1
2016-05-27T00:32:41.020Z,15.2
2016-05-27T00:32:43.957Z,15.1
2016-05-27T00:32:47.879Z,15.1
2016-05-27T00:32:50.832Z,15
2016-05-27T00:32:53.629Z,14.9
2016-05-27T00:32:56.567Z,14.9
2016-05-27T00:33:00.491Z,14.9
2016-05-27T00:33:03.272Z,14.8
2016-05-27T00:33:06.069Z,14.8
2016-05-27T00:33:08.850Z,14.8
2016-05-27T00:33:12.631Z,14.8
2016-05-27T00:33:15.584Z,14.8
2016-05-27T00:33:18.522Z,14.8
2016-05-27T00:33:21.163Z,14.8
2016-05-27T00:33:24.944Z,14.8
2016-05-27T00:33:28.522Z,14.8
2016-05-27T00:33:31.944Z,14.8
2016-05-27T00:33:35.741Z,14.8
2016-05-27T00:33:38.741Z,14.8
2016-05-27T00:33:41.553Z,14.8
2016-05-27T00:33:46.491Z,14.9
2016-05-27T00:33:49.819Z,14.8
2016-05-27T00:33:52.475Z,14.8
2016-05-27T00:33:56.100Z,14.8
2016-05-27T00:33:59.853Z,14.8
2016-05-27T00:34:02.494Z,14.9
2016-05-27T00:34:04.978Z,14.9
2016-05-27T00:34:09.306Z,14.8
2016-05-27T00:34:12.259Z,14.9
2016-05-27T00:34:14.744Z,14.9
2016-05-27T00:34:17.759Z,14.9
2016-05-27T00:34:21.978Z,14.9
2016-05-27T00:34:24.759Z,14.9
2016-05-27T00:34:27.759Z,14.9
2016-05-27T00:34:31.712Z,15
2016-05-27T00:34:34.650Z,15
2016-05-27T00:34:37.603Z,15
2016-05-27T00:34:40.384Z,14.9
2016-05-27T00:34:44.306Z,14.9
2016-05-27T00:34:47.259Z,15
2016-05-27T00:34:50.056Z,14.9
2016-05-27T00:34:52.994Z,15
2016-05-27T00:34:56.931Z,15
2016-05-27T00:34:59.871Z,15
2016-05-27T00:35:02.824Z,15
2016-05-27T00:35:05.761Z,15
2016-05-27T00:35:09.527Z,15.1
2016-05-27T00:35:12.308Z,15.1
2016-05-27T00:35:15.105Z,15.1
2016-05-27T00:35:18.058Z,15.1
2016-05-27T00:35:21.980Z,15.1
2016-05-27T00:35:24.777Z,15.1
2016-05-27T00:35:27.714Z,15.1
2016-05-27T00:35:30.511Z,15.1
2016-05-27T00:35:34.277Z,15.1
2016-05-27T00:35:37.058Z,15
2016-05-27T00:35:39.996Z,15
2016-05-27T00:35:42.949Z,14.9
2016-05-27T00:35:46.871Z,14.9
2016-05-27T00:35:49.652Z,14.9
2016-05-27T00:35:52.589Z,14.9
2016-05-27T00:35:55.543Z,14.9
2016-05-27T00:35:59.155Z,14.9
2016-05-27T00:36:01.967Z,15
2016-05-27T00:36:04.905Z,14.9
2016-05-27T00:36:07.842Z,14.9
2016-05-27T00:36:11.608Z,14.9
2016-05-27T00:36:14.389Z,15
2016-05-27T00:36:17.186Z,15
2016-05-27T00:36:20.139Z,14.9
2016-05-27T00:36:24.061Z,15
2016-05-27T00:36:26.842Z,15
2016-05-27T00:36:29.780Z,15
2016-05-27T00:36:32.577Z,15
2016-05-27T00:36:36.499Z,15
2016-05-27T00:36:39.436Z,15
2016-05-27T00:36:42.374Z,15
2016-05-27T00:36:45.311Z,15.1
2016-05-27T00:36:48.936Z,15.1
2016-05-27T00:36:51.592Z,15.2
2016-05-27T00:36:54.233Z,15.1
2016-05-27T00:36:57.171Z,15
2016-05-27T00:37:00.955Z,15.2
2016-05-27T00:37:03.736Z,15.1
2016-05-27T00:37:06.533Z,15.1
2016-05-27T00:37:09.330Z,15.1
2016-05-27T00:37:12.939Z,15.2
2016-05-27T00:37:15.892Z,15.1
2016-05-27T00:37:18.674Z,15.1
2016-05-27T00:37:21.611Z,15.2
2016-05-27T00:37:25.549Z,15.1
2016-05-27T00:37:28.486Z,15
2016-05-27T00:37:31.283Z,14.9
2016-05-27T00:37:33.924Z,14.9
2016-05-27T00:37:37.392Z,14.9
2016-05-27T00:37:40.017Z,15
2016-05-27T00:37:42.970Z,15
2016-05-27T00:37:45.908Z,15.1
2016-05-27T00:37:49.689Z,15
2016-05-27T00:37:52.627Z,15
2016-05-27T00:37:55.424Z,15
2016-05-27T00:37:58.364Z,15
2016-05-27T00:38:02.286Z,15
2016-05-27T00:38:05.223Z,15.1
2016-05-27T00:38:08.177Z,15.1
2016-05-27T00:38:11.114Z,15.1
2016-05-27T00:38:14.880Z,15
2016-05-27T00:38:17.833Z,15.1
2016-05-27T00:38:20.770Z,15.1
2016-05-27T00:38:23.411Z,15
2016-05-27T00:38:27.192Z,15.1
2016-05-27T00:38:30.130Z,15
2016-05-27T00:38:33.067Z,15
2016-05-27T00:38:35.864Z,15
2016-05-27T00:38:39.630Z,14.9
2016-05-27T00:38:42.427Z,15
2016-05-27T00:38:45.364Z,14.9
2016-05-27T00:38:48.317Z,15
2016-05-27T00:38:52.223Z,15
2016-05-27T00:38:55.161Z,15
2016-05-27T00:38:58.100Z,15
2016-05-27T00:39:01.054Z,15
2016-05-27T00:39:04.991Z,15.1
2016-05-27T00:39:07.944Z,15.1
2016-05-27T00:39:10.913Z,15.1
2016-05-27T00:39:13.554Z,15.1
2016-05-27T00:39:17.319Z,15.1
2016-05-27T00:39:20.100Z,15.2
2016-05-27T00:39:22.897Z,15.2
2016-05-27T00:39:25.835Z,15.1
2016-05-27T00:39:29.616Z,15
2016-05-27T00:39:32.413Z,15.1
2016-05-27T00:39:35.350Z,15.1
2016-05-27T00:39:38.163Z,15.1
2016-05-27T00:39:42.085Z,15.2
2016-05-27T00:39:44.866Z,15.1
2016-05-27T00:39:47.663Z,15.1
2016-05-27T00:39:50.444Z,15.1
2016-05-27T00:39:54.382Z,15.1
2016-05-27T00:39:57.319Z,15.1
2016-05-27T00:40:00.260Z,15.1
2016-05-27T00:40:03.057Z,15.1
2016-05-27T00:40:06.697Z,15.2
2016-05-27T00:40:09.635Z,15.1
2016-05-27T00:40:12.588Z,15.2
2016-05-27T00:40:15.541Z,15.2
2016-05-27T00:40:19.307Z,15.2
2016-05-27T00:40:22.244Z,15.1
2016-05-27T00:40:25.182Z,15.2
2016-05-27T00:40:28.135Z,15.1
2016-05-27T00:40:32.057Z,15.2
2016-05-27T00:40:34.994Z,15.2
2016-05-27T00:40:37.947Z,15.2
2016-05-27T00:40:40.588Z,15.2
2016-05-27T00:40:44.353Z,15.1
2016-05-27T00:40:46.994Z,15.2
2016-05-27T00:40:49.635Z,15.1
2016-05-27T00:40:52.572Z,15.1
2016-05-27T00:40:56.338Z,15.1
2016-05-27T00:40:59.138Z,15.2
2016-05-27T00:41:02.075Z,15
2016-05-27T00:41:05.013Z,15.1
2016-05-27T00:41:08.935Z,15
2016-05-27T00:41:11.888Z,15
2016-05-27T00:41:14.825Z,15
2016-05-27T00:41:17.466Z,15
2016-05-27T00:41:21.388Z,15
2016-05-27T00:41:24.341Z,15
2016-05-27T00:41:27.294Z,15
2016-05-27T00:41:30.231Z,14.9
2016-05-27T00:41:34.013Z,15
2016-05-27T00:41:36.950Z,15
2016-05-27T00:41:39.903Z,15
2016-05-27T00:41:42.685Z,15
2016-05-27T00:41:46.450Z,14.9
2016-05-27T00:41:49.403Z,14.9
2016-05-27T00:41:52.185Z,14.9
2016-05-27T00:41:54.825Z,14.9
2016-05-27T00:41:58.608Z,14.9
2016-05-27T00:42:01.562Z,14.9
2016-05-27T00:42:04.202Z,14.9
2016-05-27T00:42:07.140Z,14.9
2016-05-27T00:42:11.108Z,14.9